ADDS METAR Data INFO
IDs: Format: Raw Decoded Include TAF

Data at: 0608 UTC 25 Jun 2018

KBPT 250553Z AUTO 16016KT 10SM CLR 28/24 A2997 RMK AO2 SLP146 T02780244 10306 20272 403330267 51007
KBPT 250453Z AUTO 16016KT 10SM CLR 28/24 A2996 RMK AO2 SLP144 T02830244
KBPT 250416Z AUTO 15011KT 10SM SCT018 SCT026 BKN033 28/25 A2996 RMK AO2 T02780250
KBPT 250400Z AUTO 16014KT 10SM BKN018 BKN029 28/25 A2996 RMK AO2 T02780250
KBPT 250353Z AUTO 15010KT 10SM SCT020 SCT026 BKN031 28/25 A2996 RMK AO2 SLP146 T02780250
KBPT 250253Z 15015KT 10SM FEW020 28/24 A2994 RMK AO2 SLP139 T02780239 51007
KBPT 250153Z 16012KT 10SM CLR 28/24 A2994 RMK AO2 SLP138 T02780239
KBPT 250053Z 16013KT 10SM CLR 29/24 A2993 RMK AO2 SLP135 T02890239
KBPT 242353Z 17017G21KT 10SM FEW027 30/24 A2992 RMK AO2 SLP132 60000 T03000239 10333 20300 55007
KBPT 242253Z 19014G22KT 10SM FEW028 32/24 A2992 RMK AO2 PK WND 17026/2205 SLP130 T03170239
KBPT 242153Z 17020KT 10SM FEW033 32/24 A2993 RMK AO2 SLP133 T03220239
KBPT 242053Z 16020G25KT 10SM SCT030 BKN038 32/24 A2994 RMK AO2 PK WND 16027/2013 SLP139 60000 T03220239 56003
KBPT 241953Z 17023KT 10SM SCT030 SCT038 33/24 A2994 RMK AO2 PK WND 16029/1916 SLP139 T03280239
KBPT 241951Z 17022KT 10SM FEW030 SCT038 33/24 A2994 RMK AO2 PK WND 16029/1916
KBPT 241853Z 16022G27KT 10SM BKN027 BKN036 BKN043 33/24 A2995 RMK AO2 PK WND 16027/1849 RAB1756E22 SLP142 P0000 T03330239
KBPT 241753Z 17017KT 10SM BKN027 BKN048 31/24 A2997 RMK AO2 SLP149 T03110244 10328 20278 51012
KBPT 241715Z 19015KT 10SM BKN027 BKN048 32/24 A2997 RMK AO2 T03220239
KBPT 241653Z 19014G22KT 10SM FEW029 BKN044 32/24 A2996 RMK AO2 PK WND 16026/1609 SLP145 T03170239
KBPT 241553Z 18013G22KT 10SM FEW028 SCT045 31/24 A2995 RMK AO2 SLP140 T03110239
KBPT 241453Z 18016KT 10SM SCT027 31/24 A2994 RMK AO2 PK WND 16026/1406 SLP137 T03110239 53009
KBPT 241353Z 17017G26KT 10SM SCT020 31/24 A2991 RMK AO2 PK WND 18027/1323 SLP128 T03060244
KBPT 241253Z 18017G23KT 10SM SCT036 29/24 A2991 RMK AO2 SLP126 T02890244
KBPT 241153Z 17011KT 10SM FEW021 FEW036 SCT060 28/25 A2991 RMK AO2 SLP127 T02780250 10278 20267 53004
KBPT 241053Z 16013KT 10SM FEW026 FEW050 27/24 A2990 RMK AO2 SLP124 T02670244
KBPT 240953Z AUTO 17011KT 10SM FEW024 SCT036 27/24 A2990 RMK AO2 SLP124 T02670239
KBPT 240853Z AUTO 17015KT 10SM CLR 27/24 A2990 RMK AO2 SLP123 T02720239 50003
KBPT 240753Z AUTO 18013KT 10SM FEW035 27/24 A2992 RMK AO2 SLP130 T02720239
KBPT 240653Z AUTO 16016KT 10SM FEW021 SCT032 28/24 A2991 RMK AO2 SLP128 T02780239
KBPT 240553Z AUTO 16014KT 10SM FEW020 FEW027 27/24 A2989 RMK AO2 SLP120 T02720239 10300 20267 403330256 51008
KBPT 240453Z AUTO 16016KT 10SM CLR 27/24 A2988 RMK AO2 SLP118 T02720244
KBPT 240353Z AUTO 16015G25KT 10SM CLR 27/24 A2987 RMK AO2 SLP116 T02720244
KBPT 240253Z AUTO 16014KT 10SM CLR 27/24 A2986 RMK AO2 SLP112 T02720239 53007
KBPT 240153Z 16015KT 10SM CLR 28/24 A2985 RMK AO2 SLP107 T02780239
KBPT 240053Z 16019G24KT 10SM SCT022 29/24 A2984 RMK AO2 SLP105 T02890239
KBPT 232353Z 15018KT 10SM SCT024 SCT032 30/24 A2984 RMK AO2 PK WND 17026/2337 SLP105 T03000239 10333 20300 58010
KBPT 232253Z 17017KT 10SM FEW025 31/24 A2985 RMK AO2 PK WND 17026/2154 SLP108 T03060239
KBPT 232153Z 18020KT 10SM SCT028 32/24 A2987 RMK AO2 PK WND 15026/2110 SLP113 T03170239
KBPT 232053Z 18017G25KT 10SM FEW028 FEW033 SCT042 33/24 A2987 RMK AO2 PK WND 17027/2017 SLP115 T03280244 58016
KBPT 231953Z 18019G27KT 10SM FEW027 33/24 A2989 RMK AO2 PK WND 17027/1948 SLP119 T03280244
KBPT 231853Z 18016G23KT 10SM BKN032 32/24 A2991 RMK AO2 PK WND 16028/1824 SLP127 T03220239